Latest Weather Observations for Mornington Island Airport

IDQ60801

Issued at 1:12 pm EST Sunday 5 April 2020 (issued every 10 minutes, with the page automatically refreshed every 10 minutes)

About weather observations | Map of weather stations | Latest weather observations for QLD | Other Formats
Station Details ID: 029182 Name: MORNINGTON ISLAND AIRPORT Lat: -16.66 Lon: 139.17 Height: 9.52 m
Data from the previous 72 hours. | See also: Recent months at Mornington Island Airport
Date/Time
EST
Temp
°C
App
Temp
°C
Dew
Point
°C
Rel
Hum
%
Delta-T
°C
Wind Press
QNH
hPa
Press
MSL
hPa
Rain since
9am
mm
Dir  Spd
km/h
Gust
km/h
Spd
kts
Gust
kts
05/01:00pm 30.2 28.7 18.6 49 7.5 SE 24 37 13 20 1011.4 1011.3 0.0
05/12:30pm 30.2 28.8 18.9 50 7.3 ESE 24 39 13 21 1011.9 1011.8 0.0
05/12:00pm 30.6 29.2 19.6 51 7.2 SE 26 37 14 20 1012.5 1012.4 0.0
05/11:30am 29.9 27.7 18.7 51 7.2 SE 28 39 15 21 1013.1 1013.0 0.0
05/11:00am 30.1 28.2 18.5 49 7.5 SE 26 39 14 21 1013.3 1013.2 0.0
05/10:30am 29.8 28.3 18.6 51 7.2 SE 24 44 13 24 1013.3 1013.2 0.0
05/10:00am 29.4 28.0 19.7 56 6.3 SSE 26 39 14 21 1013.2 1013.1 0.0
05/09:30am 29.3 27.9 19.6 56 6.3 SSE 26 39 14 21 1012.9 1012.8 0.0
05/09:00am 29.0 29.4 21.7 64 4.9 SSE 22 41 12 22 1012.6 1012.5 0.0
05/08:30am 28.5 29.3 21.8 67 4.5 SSE 20 30 11 16 1012.5 1012.4 0.0
05/08:00am 28.1 30.1 23.0 74 3.5 SSE 17 28 9 15 1012.3 1012.2 0.0
05/07:30am 26.9 30.7 24.0 84 2.0 S 11 17 6 9 1012.2 1012.1 0.0
05/07:00am 26.9 30.3 24.0 84 2.0 S 13 22 7 12 1011.9 1011.8 0.0
05/06:30am 26.5 31.9 24.5 89 1.4 S 4 7 2 4 1011.6 1011.5 0.0
05/06:00am 26.2 31.0 24.2 89 1.4 S 6 7 3 4 1011.2 1011.1 0.0
05/05:30am 26.3 31.2 24.3 89 1.4 S 6 9 3 5 1010.9 1010.8 0.0
05/05:00am 26.5 31.1 24.2 87 1.6 S 7 11 4 6 1010.7 1010.6 0.0
05/04:30am 26.5 30.8 24.2 87 1.6 S 9 13 5 7 1010.4 1010.3 0.0
05/04:00am 26.5 31.4 24.3 88 1.5 SSW 6 9 3 5 1010.4 1010.3 0.0
05/03:30am 26.6 31.2 24.1 86 1.7 S 7 11 4 6 1010.5 1010.4 0.0
05/03:00am 26.9 31.7 24.4 86 1.7 S 7 11 4 6 1010.6 1010.5 0.0
05/02:30am 27.3 31.8 24.6 85 1.9 S 9 11 5 6 1010.9 1010.8 0.0
05/02:00am 27.4 32.0 24.8 86 1.8 SSW 9 15 5 8 1011.0 1010.9 0.0
05/01:30am 27.6 32.5 25.2 87 1.7 S 9 13 5 7 1011.1 1011.0 0.0
05/01:00am 27.6 32.7 25.0 86 1.8 S 7 11 4 6 1011.1 1011.0 0.0
05/12:30am 27.6 32.7 24.6 84 2.1 S 6 7 3 4 1011.1 1011.0 0.0
05/12:00am 27.6 33.0 25.2 87 1.7 S 6 9 3 5 1011.3 1011.2 0.0
 
Date/Time
EST
Temp
°C
App
Temp
°C
Dew
Point
°C
Rel
Hum
%
Delta-T
°C
Wind Press
QNH
hPa
Press
MSL
hPa
Rain since
9am
mm
Dir  Spd
km/h
Gust
km/h
Spd
kts
Gust
kts
04/11:30pm 27.6 33.2 25.4 88 1.5 S 6 7 3 4 1011.6 1011.5 0.0
04/11:00pm 27.8 34.5 25.4 87 1.7 CALM 0 0 0 0 1011.9 1011.8 0.0
04/10:30pm 27.7 34.2 25.1 86 1.8 CALM 0 6 0 3 1011.5 1011.4 0.0
04/10:00pm 27.8 33.2 25.2 86 1.8 S 6 7 3 4 1011.3 1011.2 0.0
04/09:30pm 27.7 32.8 24.7 84 2.1 S 6 9 3 5 1011.2 1011.1 0.0
04/09:00pm 27.5 33.8 24.7 85 2.0 CALM 0 0 0 0 1011.4 1011.3 0.0
04/08:30pm 27.6 32.7 24.6 84 2.1 S 6 9 3 5 1010.7 1010.6 0.0
04/08:00pm 27.7 31.3 24.3 82 2.4 SSE 13 17 7 9 1010.2 1010.1 0.0
04/07:30pm 29.6 34.6 23.8 71 4.0 W 4 9 2 5 1009.9 1009.8 0.0
04/07:00pm 29.7 34.2 23.9 71 4.0 W 7 13 4 7 1010.5 1010.4 0.0
04/06:30pm 30.0 33.6 23.7 69 4.4 NNW 11 15 6 8 1010.1 1010.0 0.0
04/06:00pm 30.3 34.4 23.2 65 4.9 NNW 7 11 4 6 1009.8 1009.7 0.0
04/05:30pm 31.2 34.3 23.6 64 5.3 NW 13 19 7 10 1009.2 1009.1 0.0
04/05:00pm 31.6 34.8 23.7 63 5.5 NNW 13 17 7 9 1008.3 1008.2 0.0
04/04:30pm 31.6 33.8 24.0 64 5.3 NW 19 24 10 13 1007.9 1007.8 0.0
04/04:00pm 31.6 32.9 23.4 61 5.7 NNW 22 30 12 16 1007.2 1007.1 0.0
04/03:30pm 31.7 33.5 23.5 62 5.7 NNW 20 28 11 15 1007.4 1007.3 0.0
04/03:00pm 32.0 34.1 24.1 63 5.5 NW 20 26 11 14 1007.9 1007.8 0.0
04/02:30pm 32.0 34.1 24.1 63 5.5 NW 20 26 11 14 1008.0 1007.9 0.0
04/02:00pm 32.2 34.2 24.0 62 5.7 NW 20 24 11 13 1008.7 1008.6 0.0
04/01:30pm 32.0 33.9 23.5 60 5.9 NW 19 24 10 13 1009.1 1009.0 0.0
04/01:00pm 31.7 34.2 23.8 63 5.5 NW 17 24 9 13 1009.6 1009.5 0.0
04/12:30pm 31.4 33.3 23.5 63 5.5 NW 19 22 10 12 1010.0 1009.9 0.0
04/12:00pm 32.2 34.6 24.3 63 5.5 NW 19 22 10 12 1010.4 1010.3 0.0
04/11:30am 31.9 34.1 24.2 63 5.4 NW 20 26 11 14 1010.4 1010.3 0.0
04/11:00am 31.6 33.6 24.5 66 5.0 NNW 22 30 12 16 1010.7 1010.6 0.0
04/10:30am 31.3 33.5 24.2 66 5.0 NW 20 24 11 13 1011.0 1010.9 0.0
04/10:00am 31.0 33.0 23.6 64 5.1 NNW 19 26 10 14 1011.0 1010.9 0.0
04/09:30am 31.2 33.1 23.8 64 5.1 N 20 28 11 15 1010.7 1010.6 0.0
04/09:00am 31.0 33.9 24.4 68 4.6 N 17 24 9 13 1010.6 1010.5 0.0
04/08:30am 30.4 32.8 24.3 70 4.3 NNW 19 24 10 13 1010.2 1010.1 0.0
04/08:00am 29.8 32.4 24.0 71 4.0 NNW 17 22 9 12 1009.9 1009.8 0.0
04/07:30am 28.9 31.4 23.8 74 3.5 NNW 17 20 9 11 1009.6 1009.5 0.0
04/07:00am 28.7 30.8 23.8 75 3.4 NNW 19 24 10 13 1009.1 1009.0 0.0
04/06:30am 28.5 31.4 23.9 76 3.2 NNW 15 20 8 11 1008.8 1008.7 0.0
04/06:00am 28.6 31.0 23.7 75 3.4 NNW 17 20 9 11 1008.4 1008.3 0.0
04/05:30am 28.7 30.9 24.0 76 3.3 NNW 19 22 10 12 1008.2 1008.1 0.0
04/05:00am 28.5 30.8 23.4 74 3.5 NNW 17 20 9 11 1007.7 1007.6 0.0
04/04:30am 28.6 30.9 23.5 74 3.5 NNW 17 20 9 11 1007.6 1007.5 0.0
04/04:00am 28.7 31.2 23.8 75 3.4 NNW 17 20 9 11 1007.8 1007.7 0.0
04/03:30am 28.7 31.5 23.6 74 3.5 NNW 15 20 8 11 1008.0 1007.9 0.0
04/03:00am 28.8 30.8 23.0 71 4.0 NNW 17 24 9 13 1008.1 1008.0 0.0
04/02:30am 28.8 30.4 22.8 70 4.1 NNW 19 24 10 13 1008.3 1008.2 0.0
04/02:00am 28.6 30.7 23.1 72 3.8 N 17 24 9 13 1008.3 1008.2 0.0
04/01:30am 28.7 31.1 22.9 71 4.0 NNW 15 20 8 11 1008.6 1008.5 0.0
04/01:00am 28.4 30.9 23.1 73 3.6 N 15 20 8 11 1008.7 1008.6 0.0
04/12:30am 28.4 31.0 23.3 74 3.5 N 15 24 8 13 1009.1 1009.0 0.0
04/12:00am 28.4 31.1 22.9 72 3.8 N 13 19 7 10 1009.1 1009.0 0.0
 
Date/Time
EST
Temp
°C
App
Temp
°C
Dew
Point
°C
Rel
Hum
%
Delta-T
°C
Wind Press
QNH
hPa
Press
MSL
hPa
Rain since
9am
mm
Dir  Spd
km/h
Gust
km/h
Spd
kts
Gust
kts
03/11:30pm 28.6 30.9 22.8 71 3.9 N 15 20 8 11 1009.4 1009.3 0.0
03/11:00pm 28.5 31.1 22.7 71 3.9 NNW 13 19 7 10 1009.8 1009.7 0.0
03/10:30pm 28.4 31.5 22.9 72 3.7 N 11 15 6 8 1010.1 1010.0 0.0
03/10:00pm 28.0 31.5 22.9 74 3.5 N 9 13 5 7 1010.0 1009.9 0.0
03/09:30pm 27.9 31.5 23.1 75 3.3 N 9 15 5 8 1009.8 1009.7 0.0
03/09:00pm 28.3 31.8 22.8 72 3.7 N 9 13 5 7 1009.8 1009.7 0.0
03/08:30pm 28.7 31.9 22.4 68 4.3 N 9 15 5 8 1009.6 1009.5 0.0
03/08:00pm 28.9 32.0 22.9 70 4.1 NNW 11 15 6 8 1009.2 1009.1 0.0
03/07:30pm 29.0 32.4 22.7 69 4.3 N 9 15 5 8 1009.0 1008.9 0.0
03/07:00pm 29.3 32.1 23.0 69 4.3 NNW 13 19 7 10 1008.9 1008.8 0.0
03/06:30pm 29.7 32.3 22.7 66 4.8 N 13 17 7 9 1008.8 1008.7 0.0
03/06:00pm 30.4 32.1 22.3 62 5.5 NNW 17 22 9 12 1008.5 1008.4 0.0
03/05:30pm 31.0 32.1 22.0 58 6.1 NNW 19 24 10 13 1008.4 1008.3 0.0
03/05:00pm 31.4 32.7 22.4 59 6.1 NNW 19 24 10 13 1008.2 1008.1 0.0
03/04:30pm 31.9 33.3 22.9 59 6.2 NNW 20 28 11 15 1008.2 1008.1 0.0
03/04:00pm 31.9 33.6 23.4 60 5.9 NNW 20 28 11 15 1008.1 1008.0 0.0
03/03:30pm 32.0 33.8 24.3 63 5.4 NW 22 28 12 15 1008.3 1008.2 0.0
03/03:00pm 31.8 33.4 23.9 63 5.5 NNW 22 28 12 15 1008.4 1008.3 0.0
03/02:30pm 31.8 33.2 23.6 62 5.7 NW 22 28 12 15 1008.8 1008.7 0.0
03/02:00pm 32.1 33.9 23.6 60 5.9 NW 20 28 11 15 1009.0 1008.9 0.0
03/01:30pm 31.9 33.9 24.0 63 5.5 NW 20 26 11 14 1009.5 1009.4 0.0
03/01:00pm 32.1 35.1 24.7 65 5.2 NW 17 24 9 13 1010.0 1009.9 0.0
03/12:30pm 31.8 34.8 24.7 66 5.0 NW 17 22 9 12 1010.4 1010.3 0.0
03/12:00pm 31.8 34.7 24.4 65 5.2 NW 17 20 9 11 1010.8 1010.7 0.0
03/11:30am 31.5 34.1 23.9 64 5.3 NW 17 22 9 12 1011.0 1010.9 0.0
03/11:00am 31.7 35.0 25.1 68 4.7 NW 17 20 9 11 1011.2 1011.1 0.0
03/10:30am 31.6 34.3 24.2 65 5.2 NW 17 20 9 11 1011.2 1011.1 0.0
03/10:00am 31.0 33.9 24.4 68 4.6 NW 17 22 9 12 1011.1 1011.0 0.0
03/09:30am 30.9 33.4 23.8 66 4.9 NW 17 19 9 10 1011.1 1011.0 0.0
03/09:00am 30.6 33.9 24.5 70 4.3 NNW 15 20 8 11 1010.7 1010.6 5.0
03/08:30am 30.0 33.7 24.6 73 3.8 NNW 13 17 7 9 1010.4 1010.3 5.0
03/08:00am 29.3 33.4 24.6 76 3.3 NNW 11 15 6 8 1010.0 1009.9 5.0
03/07:30am 27.6 32.0 24.4 83 2.2 N 9 11 5 6 1009.7 1009.6 5.0
03/07:00am 25.9 30.3 23.8 88 1.4 N 7 9 4 5 1009.4 1009.3 5.0
03/06:30am 26.3 30.4 24.0 87 1.6 N 9 11 5 6 1009.1 1009.0 5.0
03/06:00am 26.5 30.6 24.0 86 1.7 N 9 11 5 6 1008.8 1008.7 5.0
03/05:30am 26.6 30.7 23.9 85 1.9 N 9 13 5 7 1008.6 1008.5 5.0
03/05:00am 26.6 30.7 23.9 85 1.9 N 9 11 5 6 1008.6 1008.5 5.0
03/04:30am 26.7 31.0 24.2 86 1.7 N 9 11 5 6 1008.6 1008.5 5.0
03/04:00am 26.1 30.1 23.8 87 1.6 N 9 9 5 5 1008.7 1008.6 5.0
03/03:30am 26.8 30.9 23.9 84 2.0 N 9 11 5 6 1008.6 1008.5 5.0
03/03:00am 27.3 31.4 24.0 82 2.3 N 9 11 5 6 1008.7 1008.6 5.0
03/02:30am 27.7 31.5 24.1 81 2.5 NNW 11 15 6 8 1008.6 1008.5 5.0
03/02:00am 27.7 31.1 24.1 81 2.5 NNW 13 17 7 9 1008.8 1008.7 5.0
03/01:30am 27.6 31.1 24.2 82 2.4 N 13 15 7 8 1009.0 1008.9 5.0
03/01:00am 27.5 31.3 24.1 82 2.4 N 11 15 6 8 1009.4 1009.3 5.0
03/12:30am 27.4 31.8 24.5 84 2.0 N 9 11 5 6 1009.6 1009.5 5.0
03/12:00am 26.9 30.9 24.4 86 1.7 N 11 13 6 7 1009.8 1009.7 5.0
 
Date/Time
EST
Temp
°C
App
Temp
°C
Dew
Point
°C
Rel
Hum
%
Delta-T
°C
Wind Press
QNH
hPa
Press
MSL
hPa
Rain since
9am
mm
Dir  Spd
km/h
Gust
km/h
Spd
kts
Gust
kts
02/11:30pm 26.7 31.0 24.2 86 1.7 N 9 11 5 6 1009.9 1009.8 5.0
02/11:00pm 26.9 31.3 24.4 86 1.7 N 9 11 5 6 1010.0 1009.9 5.0
02/10:30pm 26.6 30.9 24.3 87 1.6 N 9 11 5 6 1010.3 1010.2 5.0
02/10:00pm 26.2 30.6 24.4 90 1.2 NNE 9 9 5 5 1010.4 1010.3 5.0
02/09:30pm 26.1 30.8 24.3 90 1.2 NNE 7 9 4 5 1010.4 1010.3 5.0
02/09:00pm 26.1 30.4 24.3 90 1.2 NNE 9 13 5 7 1010.1 1010.0 5.0
02/08:30pm 26.2 30.4 24.1 88 1.4 NNE 9 11 5 6 1009.9 1009.8 5.0
02/08:00pm 26.5 30.9 23.8 85 1.9 NNE 7 9 4 5 1009.6 1009.5 5.0
02/07:30pm 26.7 31.1 23.8 84 2.0 NNE 7 9 4 5 1009.5 1009.4 5.0
02/07:00pm 27.2 31.5 23.7 81 2.4 NNE 7 9 4 5 1009.3 1009.2 5.0
02/06:30pm 27.9 31.6 23.9 79 2.8 NNE 11 15 6 8 1009.1 1009.0 5.0
02/06:00pm 28.6 32.1 23.5 74 3.5 NNE 11 15 6 8 1009.1 1009.0 5.0
02/05:30pm 28.6 31.7 23.5 74 3.5 NNE 13 17 7 9 1008.8 1008.7 5.0
02/05:00pm 29.2 31.9 23.4 71 4.0 N 15 20 8 11 1008.8 1008.7 5.0
02/04:30pm 29.9 32.5 23.3 67 4.5 NNE 15 19 8 10 1008.9 1008.8 5.0
02/04:00pm 29.2 31.2 23.6 72 3.9 NNE 19 30 10 16 1008.7 1008.6 5.0
02/03:30pm 30.7 34.9 24.1 68 4.6 ENE 9 19 5 10 1008.6 1008.5 5.0
02/03:00pm 29.6 33.4 23.5 69 4.2 E 9 17 5 9 1008.7 1008.6 5.0
02/02:30pm 28.7 31.3 24.0 76 3.3 E 17 20 9 11 1009.4 1009.3 5.0
02/02:00pm 31.0 34.9 22.9 62 5.6 SSW 7 9 4 5 1009.6 1009.5 5.0
02/01:30pm 30.1 32.7 21.2 59 6.0 W 9 15 5 8 1010.0 1009.9 5.0
02/01:16pm 28.6 30.6 21.6 66 4.7 NW 13 20 7 11 1010.4 1010.3 5.0

Other formats

Comma delimited format used in spreadsheet applications
http://www.bom.gov.au/fwo/IDQ60801/IDQ60801.94254.axf

JavaScript Object Notation format (JSON) in row-major order
http://www.bom.gov.au/fwo/IDQ60801/IDQ60801.94254.json

Data quality

Most of these data are generated automatically and are frequently updated. Quality checks on data are not normally performed. It is possible for incorrect values to appear. Refer to information at About Latest Weather Observations and please check the disclaimer before using these data.